13:23
Airports
History
Links
Donate
Help keep this website running!
PayPal
Bitcoin
This page is community maintained. The information is intended for PC simulator navigation or reference.
Always use approved charts for navigation.
CKT7
Wakaw
Wakaw (CKT7)
Wakaw, Saskatchewan, Canada
(U)
Lat/Lng:52° 38' 54.97" N / 105° 45' 46.44" W
52.648602 / -105.7629
Elevation:1660'ft / 506mMSL
ID / ICAO:CKT7
Runways:1
Longest:11-29
Asphalt 821m / 2,693ft
Nearby Weather13:00 GMT 2018-01-20
Nearby weather at CYPA, Prince Albert (Glass Field) located 39.3 nautical miles from CKT7
Altimeter: 29.63
Visibility: 15.0 statute miles
Wind: 5 knots (from 100°)
Temp: -7°c / 19°f
Humidity: 85.6%

METAR: CYPA 201300Z 10005KT 15SM -SN BKN025 BKN045 OVC140 M07/M09 A2963 RMK SC6SC1AC1 SLP060

(Powered by phpweather)
Nearby VORs <50NM
Nearby NDBs
Runway 11 / 29
Dimensions:820.8 x 18m 2693' x 59'ft
Surface:Asphalt
Runway 11 [A]Runway 29 [B]
Heading:126°TH 306°TH
Lat:
Lng:
52° 39' 2.8"N
105° 46' 4.21"W
52° 38' 47.13"N
105° 45' 28.67"W
User Notes and Comments
52° 38' 54.97" N / 105° 45' 46.44" W
Distance To
Airport ID:
Nearby Airports
4 Cudworth 11.1 NM
CKS3 S 180°
4 Cudworth Muni 11.5 NM
CJD2 SSE 168°
(U) Birch Hills 27.0 NM
CJD3 NNE 29°
4 St. Brieux 37.0 NM
CKK2 E 90°
(C) Prince Albert (Glass Field) 39.3 NM
CYPA ( WX ) N
(U) Humboldt 42.1 NM
CJU4 SE 140°
4 Saskatoon/Richter Field 46.4 NM
CRF5 SW 236°
VFR Chart
Flight Planning at SkyVector.com